Caruth, Missouri
Current Conditions -  °F | °C
As of 4:53 AM on Friday 31 Oct 2014 (Local Time) from KHKA Reporting Station
Few Clouds Few Clouds  
Wind Chill: 42°   Ceiling: Unl
Heat Index: 46°   Visibility: 10mi
Dew Point: 45°   Wind: 8mph
Humidity: 96%   Direction: 330°NNW
Pressure: 30"   Gusts: NA
Location:  36.2279°N, 90.0425°W
Report Text: KHKA 310953Z AUTO 33007KT 10SM FEW100 08/07 A3000 RMK AO2 SLP159 T00780072
Loading
Personal Weather Stations






























Interactive Weather Map
Tropical Storm Tracking
New forecast layout! Learn more

10-Day Weather Forecast

Advertisements
Track Severe Weather on mobile